Lawson, AR (71750)

12:59 PM CDT on July 31, 2015 (GMT -0500)
State Line in JC Town | | Change Station
CLOSE
Current Station
Personal Weather Station
Location: Junction City, LA
Elevation: 213 ft
Nearby Weather Stations

Elev 213 ft 33.01 °N, 92.72 °W | Updated 4 seconds ago

Clear
Clear
95.5 °F
Feels Like 99 °F
N
9.9
Wind Variable Wind from NE
Gusts 9.9 mph

Today
High -- | Low -- °F
--% Chance of Precip.
Yesterday
High -- | Low -- °F
Precip. -- in
6:22 AM 8:10 PM
Full, 100% visible
Pressure 30.08 in
Visibility 10.0 miles
Clouds Clear
Heat Index 99 °F
Dew Point 66 °F
Humidity 38%
Rainfall 0.00 in
Snow Depth Not available.
UV 12 out of 12
Pollen 5.50 out of 12
Air Quality Not available.
Flu Activity Not available.
METAR KELD 311753Z AUTO 04010KT 10SM -RA CLR 33/16 A3009 RMK AO2 SLP186 P0000 60000 T03280161 10328 20200 58006

More Conditions Fewer Conditions

Pressure 30.08 in
Visibility 10.0 miles
Clouds Clear
Heat Index 99 °F
Dew Point 66 °F
Humidity 38%
Rainfall 0.00 in
Snow Depth Not available.
UV 12 out of 12
Pollen 5.50 out of 12
Air Quality Not available.
Flu Activity Not available.
METAR KELD 311753Z AUTO 04010KT 10SM -RA CLR 33/16 A3009 RMK AO2 SLP186 P0000 60000 T03280161 10328 20200 58006

More Conditions Fewer Conditions

10-Day Weather Forecast

×

Almanac

Astronomy

Jul. 31, 2015 Rise Set
Actual Time
Civil Twilight
Nautical Twilight
Astronomical Twilight
Moon
Length of Visible Light
Length of Day
Tomorrow will be .
, % of the Moon is Illuminated

Today's Extremes

State Highs State Lows

Community

WunderPhotos

Upload Photos

1,842,703 photos uploaded!

WunderBlogs® & News

Nearby

Air Quality

  Air Quality AQ Index Pollutant
Not available.

Snow Depth

Station Depth Elevation

Earthquake Activity

City Distance Mag. Time & Date
Minimum magnitude displayed is 2.5.

Coastal Water Temperatures

Place Temperature

Stations

Nearby Weather Stations

Station Location Temp. Windchill Dew Point Humidity Wind Precip. Elev Updated Type